Time;durP1;ratioP1;P1;durP2;ratioP2;P2;SDS_P1;SDS_P2;PMS_P1;PMS_P2;Temp;Humidity;BMP_temperature;BMP_pressure;BME280_temperature;BME280_humidity;BME280_pressure;Samples;Min_cycle;Max_cycle;Signal;HPM_P1;HPM_P2
2022/11/02 00:00:28;;;;;;;5.72;1.80;;;;;;;10.62;nan;101067.59;5044171;28;19963;-68
2022/11/02 00:02:53;;;;;;;4.88;1.70;;;;;;;10.61;nan;101057.19;5046957;28;20060;-66
2022/11/02 00:05:23;;;;;;;6.43;1.85;;;;;;;10.61;nan;101059.81;5044963;28;20045;-66
2022/11/02 00:07:49;;;;;;;7.30;2.05;;;;;;;10.64;nan;101064.81;5046681;28;20037;-66
2022/11/02 00:10:15;;;;;;;4.68;1.92;;;;;;;10.64;nan;101067.47;5046162;28;20236;-66
2022/11/02 00:12:40;;;;;;;7.30;1.85;;;;;;;10.58;nan;101060.06;5044406;28;20033;-66
2022/11/02 00:15:06;;;;;;;5.33;2.07;;;;;;;10.58;nan;101062.72;5045971;28;20525;-66
2022/11/02 00:17:33;;;;;;;6.78;2.08;;;;;;;10.58;nan;101065.38;5048291;28;20284;-66
2022/11/02 00:19:58;;;;;;;6.05;2.28;;;;;;;10.55;nan;101063.00;5025259;28;20048;-66
2022/11/02 00:22:25;;;;;;;7.18;2.53;;;;;;;10.55;nan;101057.72;5046814;28;20041;-65
2022/11/02 00:24:50;;;;;;;5.63;1.90;;;;;;;10.54;nan;101058.72;5050787;28;20037;-66
2022/11/02 00:27:16;;;;;;;5.80;2.10;;;;;;;10.53;nan;101063.13;5050433;28;20122;-66
2022/11/02 00:29:41;;;;;;;3.75;1.63;;;;;;;10.53;nan;101070.25;5050619;28;20037;-66
2022/11/02 00:32:06;;;;;;;7.22;2.22;;;;;;;10.53;nan;101075.53;5048971;28;20033;-66
2022/11/02 00:34:32;;;;;;;5.47;2.10;;;;;;;10.50;nan;101066.06;5046465;28;20113;-65
2022/11/02 00:36:57;;;;;;;5.05;2.00;;;;;;;10.48;nan;101064.53;5049141;28;20293;-65
2022/11/02 00:39:22;;;;;;;4.13;1.60;;;;;;;10.59;nan;101061.78;5026344;28;20410;-68
2022/11/02 00:41:47;;;;;;;5.97;1.83;;;;;;;10.54;nan;101054.25;5047151;28;20045;-66
2022/11/02 00:44:13;;;;;;;6.43;2.08;;;;;;;10.54;nan;101064.00;5048122;28;20414;-66
2022/11/02 00:46:38;;;;;;;6.87;1.87;;;;;;;10.51;nan;101051.88;5026250;28;20033;-66
2022/11/02 00:49:03;;;;;;;6.97;1.90;;;;;;;10.50;nan;101046.72;5044498;28;20295;-66
2022/11/02 00:51:28;;;;;;;6.27;1.97;;;;;;;10.51;nan;101049.25;5051770;28;20298;-66
2022/11/02 00:53:53;;;;;;;6.82;1.90;;;;;;;10.56;nan;101048.84;5047716;28;20300;-66
2022/11/02 00:56:19;;;;;;;4.53;1.60;;;;;;;10.57;nan;101047.84;5047595;28;20045;-66
2022/11/02 00:58:44;;;;;;;6.20;1.80;;;;;;;10.69;nan;101049.38;5046450;28;20413;-68
2022/11/02 01:01:09;;;;;;;;;;;;;;;10.66;nan;101054.94;5047166;28;20056;-66
2022/11/02 01:03:35;;;;;;;7.20;2.17;;;;;;;10.67;nan;101048.66;5047147;28;19932;-66
2022/11/02 01:06:11;;;;;;;7.85;2.10;;;;;;;10.67;nan;101051.31;5028286;28;20807;-65
2022/11/02 01:08:37;;;;;;;4.97;1.88;;;;;;;10.67;nan;101048.66;5047559;28;20029;-66
2022/11/02 01:11:10;;;;;;;6.63;2.10;;;;;;;10.67;nan;101048.66;5029026;28;20048;-68
2022/11/02 01:13:35;;;;;;;7.45;2.00;;;;;;;10.66;nan;101049.66;5048136;28;20059;-65
2022/11/02 01:16:05;;;;;;;8.32;2.00;;;;;;;10.66;nan;101049.66;5047642;28;20111;-68
2022/11/02 01:18:30;;;;;;;7.07;2.05;;;;;;;10.67;nan;101050.50;5046077;28;20034;-68
2022/11/02 01:20:57;;;;;;;7.32;2.22;;;;;;;10.68;nan;101049.50;5030401;28;20114;-66
2022/11/02 01:23:22;;;;;;;7.78;2.10;;;;;;;10.73;nan;101036.72;5047329;28;20045;-66
2022/11/02 01:25:48;;;;;;;9.40;2.40;;;;;;;10.74;nan;101046.31;5046899;28;20037;-66
2022/11/02 01:28:13;;;;;;;7.28;1.90;;;;;;;10.80;nan;101040.47;5046427;28;20127;-66
2022/11/02 01:30:39;;;;;;;4.88;2.03;;;;;;;10.84;nan;101050.63;5030395;28;20051;-66
2022/11/02 01:33:05;;;;;;;9.18;1.90;;;;;;;10.82;nan;101042.00;5045858;28;20234;-66
2022/11/02 01:35:30;;;;;;;6.15;2.10;;;;;;;10.80;nan;101043.94;5047053;28;20040;-68
2022/11/02 01:37:55;;;;;;;6.28;2.20;;;;;;;10.83;nan;101035.72;5047929;28;20025;-68
2022/11/02 01:40:20;;;;;;;5.82;2.00;;;;;;;10.88;nan;101039.75;5029378;28;20111;-68
2022/11/02 01:42:46;;;;;;;9.45;2.60;;;;;;;10.89;nan;101028.19;5046739;28;20394;-65
2022/11/02 01:45:12;;;;;;;8.93;2.38;;;;;;;10.95;nan;101032.94;5045944;28;20048;-66
2022/11/02 01:47:41;;;;;;;6.35;1.90;;;;;;;11.00;nan;101030.69;5047617;28;20498;-66
2022/11/02 01:50:15;;;;;;;9.15;2.10;;;;;;;11.03;nan;101035.69;5046970;28;20390;-65
2022/11/02 01:52:40;;;;;;;7.25;2.42;;;;;;;11.04;nan;101032.09;5046047;28;20048;-66
2022/11/02 01:55:18;;;;;;;8.30;1.80;;;;;;;11.03;nan;101033.88;5047441;28;20029;-65
2022/11/02 01:57:47;;;;;;;6.63;1.80;;;;;;;11.08;nan;101035.25;5046628;28;20029;-65
2022/11/02 02:00:15;;;;;;;8.18;2.33;;;;;;;11.08;nan;101037.91;5046584;28;20114;-66
2022/11/02 02:03:05;;;;;;;8.95;2.33;;;;;;;11.12;nan;101026.91;5014853;28;20401;-65
2022/11/02 02:05:33;;;;;;;5.88;1.92;;;;;;;11.11;nan;101034.97;5049128;28;20033;-65
2022/11/02 02:08:01;;;;;;;5.75;2.15;;;;;;;11.11;nan;101035.81;5048860;28;20029;-68
2022/11/02 02:10:26;;;;;;;6.25;2.38;;;;;;;11.14;nan;101040.81;5048042;28;20054;-66
2022/11/02 02:12:51;;;;;;;;;;;;;;;11.13;nan;101023.28;5049791;28;20510;-65
2022/11/02 02:15:17;;;;;;;;;;;;;;;11.11;nan;101022.59;5047204;28;19916;-65
2022/11/02 02:17:42;;;;;;;;;;;;;;;11.09;nan;101019.25;5050588;28;20157;-65
2022/11/02 02:20:13;;;;;;;5.78;2.00;;;;;;;11.12;nan;101020.78;5047795;28;20015;-66
2022/11/02 02:22:57;;;;;;;7.13;2.08;;;;;;;11.10;nan;101015.63;5048342;28;20044;-66
2022/11/02 02:25:34;;;;;;;8.45;2.20;;;;;;;11.13;nan;101014.50;5047384;28;20389;-68
2022/11/02 02:28:24;;;;;;;8.98;2.20;;;;;;;11.10;nan;101015.63;5048568;28;20037;-68
2022/11/02 02:30:55;;;;;;;8.55;2.60;;;;;;;11.13;nan;101012.69;5042713;28;20566;-66
2022/11/02 02:33:33;;;;;;;7.55;2.03;;;;;;;11.13;nan;101019.78;5048198;28;20068;-66
2022/11/02 02:36:06;;;;;;;8.02;2.42;;;;;;;11.11;nan;101013.78;5044272;28;20041;-66
2022/11/02 02:38:41;;;;;;;5.70;2.05;;;;;;;11.13;nan;101023.28;5048645;28;20401;-66
2022/11/02 02:41:10;;;;;;;9.13;2.33;;;;;;;11.10;nan;101023.56;5048675;28;20091;-66
2022/11/02 02:43:40;;;;;;;5.95;2.00;;;;;;;11.08;nan;101022.03;5047860;28;20052;-66
2022/11/02 02:46:15;;;;;;;7.55;1.85;;;;;;;11.06;nan;101019.53;5046889;28;20033;-68
2022/11/02 02:48:42;;;;;;;6.20;2.25;;;;;;;11.08;nan;101014.91;5047971;28;20029;-68
2022/11/02 02:51:17;;;;;;;5.32;2.20;;;;;;;11.03;nan;101010.03;5047657;28;20025;-68
2022/11/02 02:54:08;;;;;;;4.80;1.65;;;;;;;11.04;nan;101005.63;5049765;28;20033;-68
2022/11/02 02:56:49;;;;;;;4.50;1.92;;;;;;;11.02;nan;101018.16;5045284;28;20037;-67
2022/11/02 02:59:28;;;;;;;7.25;2.58;;;;;;;11.00;nan;101017.44;5043849;28;20049;-67
2022/11/02 03:01:54;;;;;;;4.10;1.60;;;;;;;11.00;nan;101007.69;5050624;28;20041;-67
2022/11/02 03:04:20;;;;;;;7.05;1.80;;;;;;;11.00;nan;101006.88;5047261;28;20514;-67
2022/11/02 03:06:50;;;;;;;8.20;1.80;;;;;;;10.98;nan;101007.00;5044966;28;20120;-67
2022/11/02 03:09:38;;;;;;;11.70;2.15;;;;;;;10.97;nan;101000.06;5045539;28;20032;-67
2022/11/02 03:12:32;;;;;;;6.70;1.75;;;;;;;10.95;nan;100999.34;5045804;28;20469;-67
2022/11/02 03:15:18;;;;;;;4.18;1.88;;;;;;;11.01;nan;100998.81;5040623;28;20124;-67
2022/11/02 03:17:46;;;;;;;7.10;1.90;;;;;;;11.05;nan;101002.81;5044245;28;20120;-67
2022/11/02 03:20:20;;;;;;;9.82;2.33;;;;;;;11.03;nan;100996.00;5047560;28;20396;-68
2022/11/02 03:23:06;;;;;;;;;;;;;;;11.00;nan;100991.00;5048694;28;20041;-67
2022/11/02 03:25:52;;;;;;;6.97;1.80;;;;;;;11.03;nan;100996.00;5030035;28;19924;-67
2022/11/02 03:28:17;;;;;;;9.55;1.88;;;;;;;11.02;nan;101000.44;5030039;28;20068;-67
2022/11/02 03:30:53;;;;;;;5.43;1.90;;;;;;;11.00;nan;100998.94;5035289;28;20072;-67
2022/11/02 03:33:23;;;;;;;;;;;;;;;11.02;nan;101005.75;5044026;28;20040;-67
2022/11/02 03:36:32;;;;;;;6.30;1.92;;;;;;;11.00;nan;101007.69;5045060;28;19923;-68
2022/11/02 03:39:07;;;;;;;11.32;2.75;;;;;;;11.06;nan;101008.97;4955395;28;20046;-68
2022/11/02 03:41:34;;;;;;;7.82;2.00;;;;;;;11.08;nan;101006.97;5034766;28;20048;-67
2022/11/02 03:44:07;;;;;;;10.25;1.60;;;;;;;11.10;nan;101015.63;5045993;28;20224;-67
2022/11/02 03:46:36;;;;;;;6.22;1.73;;;;;;;11.19;nan;101016.56;5043808;28;20528;-68
2022/11/02 03:49:04;;;;;;;;;;;;;;;11.19;nan;101008.63;5044828;28;20047;-67
2022/11/02 03:51:33;;;;;;;6.72;2.00;;;;;;;11.20;nan;101010.28;5044215;28;19971;-67
2022/11/02 03:54:08;;;;;;;7.35;1.80;;;;;;;11.22;nan;101011.81;5044435;28;20036;-67
2022/11/02 03:56:45;;;;;;;5.68;1.60;;;;;;;11.22;nan;101010.97;5046538;28;20154;-67
2022/11/02 03:59:12;;;;;;;6.85;2.15;;;;;;;11.22;nan;101008.34;5046404;28;20043;-67
2022/11/02 04:01:47;;;;;;;6.82;1.90;;;;;;;11.30;nan;101026.13;5029344;28;20063;-67
2022/11/02 04:04:12;;;;;;;5.15;1.55;;;;;;;11.34;nan;101038.13;5047664;28;20049;-67
2022/11/02 04:06:40;;;;;;;9.10;2.03;;;;;;;11.43;nan;101042.56;5049829;28;20040;-67
2022/11/02 04:09:06;;;;;;;6.85;2.00;;;;;;;11.51;nan;101041.81;5048587;28;20037;-67
2022/11/02 04:19:43;;;;;;;7.75;2.10;;;;;;;11.68;nan;101055.16;5048351;28;20040;-68
2022/11/02 04:27:36;;;;;;;5.78;1.67;;;;;;;11.75;nan;101067.78;5050414;28;20128;-67
2022/11/02 04:30:03;;;;;;;6.75;2.13;;;;;;;11.78;nan;101081.59;5050378;28;20112;-69
2022/11/02 04:35:12;;;;;;;9.55;2.20;;;;;;;11.75;nan;101081.91;5050672;28;20288;-67
2022/11/02 04:40:26;;;;;;;8.18;2.10;;;;;;;11.77;nan;101081.75;5049693;28;20060;-67
2022/11/02 04:42:51;;;;;;;4.57;1.55;;;;;;;11.75;nan;101089.00;5032245;28;20033;-67
2022/11/02 04:45:17;;;;;;;7.53;1.92;;;;;;;11.75;nan;101084.56;5050316;28;20138;-67
2022/11/02 04:47:42;;;;;;;7.72;2.13;;;;;;;11.76;nan;101090.69;5050252;28;20405;-67
2022/11/02 04:50:08;;;;;;;9.25;2.13;;;;;;;11.72;nan;101089.28;5049915;28;20040;-68
2022/11/02 04:52:33;;;;;;;7.93;1.90;;;;;;;11.75;nan;101089.00;5049607;28;20059;-67
2022/11/02 04:54:58;;;;;;;6.82;2.10;;;;;;;11.72;nan;101084.00;5050295;28;20032;-67
2022/11/02 04:57:24;;;;;;;4.28;1.92;;;;;;;11.70;nan;101078.81;5047623;28;20037;-67
2022/11/02 04:59:49;;;;;;;6.15;1.90;;;;;;;11.69;nan;101096.53;5047948;28;20170;-67
2022/11/02 05:02:14;;;;;;;5.85;2.15;;;;;;;11.67;nan;101095.03;5045864;28;20037;-67
2022/11/02 05:04:40;;;;;;;7.13;2.00;;;;;;;11.64;nan;101088.19;5046816;28;20068;-67
2022/11/02 05:07:06;;;;;;;7.18;2.20;;;;;;;11.63;nan;101090.97;5024752;28;20037;-67
2022/11/02 05:09:32;;;;;;;10.48;2.92;;;;;;;11.64;nan;101090.03;5029907;28;20040;-67
2022/11/02 05:11:57;;;;;;;6.13;2.00;;;;;;;11.64;nan;101090.84;5046466;28;20029;-67
2022/11/02 05:14:22;;;;;;;4.65;2.22;;;;;;;11.63;nan;101085.69;5047518;28;20379;-67
2022/11/02 05:16:47;;;;;;;6.70;2.13;;;;;;;11.62;nan;101091.97;5047972;28;20537;-67
2022/11/02 05:19:13;;;;;;;6.50;2.07;;;;;;;11.61;nan;101092.97;5047564;28;20041;-67
2022/11/02 05:21:38;;;;;;;5.90;2.00;;;;;;;11.61;nan;101095.63;5047515;28;20667;-67
2022/11/02 05:24:04;;;;;;;5.43;2.20;;;;;;;11.61;nan;101092.97;5047539;28;20342;-67
2022/11/02 05:26:29;;;;;;;9.20;3.03;;;;;;;11.60;nan;101097.41;5029230;28;20514;-67
2022/11/02 05:28:54;;;;;;;8.57;2.10;;;;;;;11.59;nan;101106.34;5048148;28;20435;-68
2022/11/02 05:31:19;;;;;;;7.43;2.40;;;;;;;11.57;nan;101108.31;5030689;28;20296;-67
2022/11/02 05:33:45;;;;;;;8.70;2.60;;;;;;;11.59;nan;101105.53;5054121;28;20038;-67
2022/11/02 05:36:10;;;;;;;4.90;1.90;;;;;;;11.60;nan;101118.59;5047213;28;20037;-67
2022/11/02 05:38:35;;;;;;;6.60;1.93;;;;;;;11.61;nan;101116.81;5046327;28;20625;-67
2022/11/02 05:41:00;;;;;;;6.68;2.03;;;;;;;11.55;nan;101114.72;5027629;28;20275;-67
2022/11/02 05:43:26;;;;;;;8.20;2.40;;;;;;;11.52;nan;101118.50;5047145;28;20803;-67
2022/11/02 05:45:57;;;;;;;6.85;2.00;;;;;;;11.44;nan;101108.63;5046753;28;20064;-67
2022/11/02 05:48:24;;;;;;;10.88;2.50;;;;;;;11.39;nan;101117.97;5032602;28;20041;-67
2022/11/02 05:50:54;;;;;;;8.05;2.53;;;;;;;11.27;nan;101119.91;5045282;28;20040;-67
2022/11/02 05:53:20;;;;;;;9.40;2.10;;;;;;;11.17;nan;101114.66;5047334;28;20037;-67
2022/11/02 05:55:45;;;;;;;6.40;2.10;;;;;;;11.04;nan;101120.25;5047901;28;20044;-67
2022/11/02 05:58:10;;;;;;;7.88;2.20;;;;;;;10.92;nan;101120.53;5047278;28;20068;-67
2022/11/02 06:00:36;;;;;;;6.70;2.30;;;;;;;10.84;nan;101127.34;5029793;28;20159;-67
2022/11/02 06:03:01;;;;;;;7.30;2.03;;;;;;;10.77;nan;101128.88;5047526;28;20037;-67
2022/11/02 06:05:26;;;;;;;6.25;2.33;;;;;;;10.72;nan;101130.25;5046297;28;20052;-67
2022/11/02 06:07:52;;;;;;;7.90;2.17;;;;;;;10.65;nan;101134.41;5045042;28;20037;-67
2022/11/02 06:10:17;;;;;;;6.32;2.22;;;;;;;10.58;nan;101142.06;5046234;28;20037;-67
2022/11/02 06:12:43;;;;;;;7.80;2.47;;;;;;;10.53;nan;101147.75;5047363;28;20036;-67
2022/11/02 06:15:09;;;;;;;5.35;2.28;;;;;;;10.49;nan;101153.47;5045368;28;20041;-67
2022/11/02 06:17:38;;;;;;;6.10;2.50;;;;;;;10.45;nan;101149.44;5043221;28;20046;-67
2022/11/02 06:20:05;;;;;;;8.90;2.30;;;;;;;10.46;nan;101165.13;5039261;28;20037;-67
2022/11/02 06:22:30;;;;;;;6.22;2.17;;;;;;;10.44;nan;101153.03;5029062;28;20098;-67
2022/11/02 06:24:55;;;;;;;4.93;2.08;;;;;;;10.41;nan;101152.31;5046927;28;20045;-67
2022/11/02 06:27:21;;;;;;;5.40;2.05;;;;;;;10.38;nan;101168.47;5046161;28;20445;-67
2022/11/02 06:29:46;;;;;;;9.48;2.35;;;;;;;10.37;nan;101168.63;5046273;28;20040;-67
2022/11/02 06:32:11;;;;;;;5.95;2.00;;;;;;;10.37;nan;101169.44;5027297;28;20043;-67
2022/11/02 06:34:36;;;;;;;6.17;2.23;;;;;;;10.40;nan;101165.69;5045629;28;20044;-67
2022/11/02 06:37:02;;;;;;;9.57;2.67;;;;;;;10.41;nan;101170.00;5045388;28;20274;-67
2022/11/02 06:39:27;;;;;;;6.20;2.40;;;;;;;10.39;nan;101169.28;5046600;28;20449;-67
2022/11/02 06:41:52;;;;;;;5.90;1.70;;;;;;;10.40;nan;101174.44;5045774;28;20121;-67
2022/11/02 06:44:18;;;;;;;5.63;2.10;;;;;;;10.40;nan;101174.44;5044617;28;20064;-68
2022/11/02 06:46:43;;;;;;;9.38;2.40;;;;;;;10.40;nan;101177.09;5027611;28;20551;-67
2022/11/02 06:49:08;;;;;;;8.48;2.17;;;;;;;10.45;nan;101178.50;5045919;28;20557;-66
2022/11/02 06:51:33;;;;;;;9.35;2.30;;;;;;;10.43;nan;101191.03;5045532;28;20037;-67
2022/11/02 06:53:59;;;;;;;7.83;2.20;;;;;;;10.47;nan;101201.19;5047901;28;20029;-67
2022/11/02 06:56:24;;;;;;;4.68;1.80;;;;;;;10.45;nan;101207.59;5048132;28;20660;-67
2022/11/02 06:58:49;;;;;;;9.05;2.30;;;;;;;10.45;nan;101210.25;5046865;28;20485;-67
2022/11/02 07:01:14;;;;;;;6.95;2.45;;;;;;;10.46;nan;101209.25;5047419;28;20063;-67
2022/11/02 07:03:40;;;;;;;8.13;2.30;;;;;;;10.48;nan;101212.59;5047817;28;20036;-67
2022/11/02 07:06:05;;;;;;;7.13;2.20;;;;;;;10.48;nan;101218.72;5047820;28;20122;-67
2022/11/02 07:08:31;;;;;;;5.97;2.30;;;;;;;10.50;nan;101221.25;5047324;28;20037;-67
2022/11/02 07:10:56;;;;;;;11.05;2.22;;;;;;;10.50;nan;101221.25;5013657;28;20049;-67
2022/11/02 07:13:22;;;;;;;8.13;2.33;;;;;;;10.49;nan;101216.94;5047596;28;20394;-67
2022/11/02 07:15:50;;;;;;;8.10;2.30;;;;;;;10.52;nan;101225.44;5047486;28;20170;-67
2022/11/02 07:18:16;;;;;;;8.18;2.47;;;;;;;10.51;nan;101233.47;5047216;28;20037;-67
2022/11/02 07:20:41;;;;;;;9.90;2.53;;;;;;;10.55;nan;101242.84;5047116;28;20040;-67
2022/11/02 07:23:07;;;;;;;5.27;1.90;;;;;;;10.71;nan;101245.81;5046516;28;20429;-67
2022/11/02 07:25:32;;;;;;;8.10;1.83;;;;;;;10.67;nan;101243.56;5039389;28;20033;-67
2022/11/02 07:27:59;;;;;;;8.82;2.40;;;;;;;10.66;nan;101242.72;5047343;28;20541;-67
2022/11/02 07:30:25;;;;;;;9.50;2.47;;;;;;;10.63;nan;101254.41;5046403;28;20260;-67
2022/11/02 07:32:51;;;;;;;7.47;2.33;;;;;;;10.63;nan;101259.72;5048743;28;20029;-67
2022/11/02 07:35:17;;;;;;;6.82;2.15;;;;;;;10.67;nan;101260.25;5048189;28;20044;-67
2022/11/02 07:37:43;;;;;;;6.15;2.17;;;;;;;10.69;nan;101260.97;5047950;28;20407;-67
2022/11/02 07:40:10;;;;;;;8.10;2.10;;;;;;;10.70;nan;101259.16;5046634;28;20048;-67
2022/11/02 07:42:46;;;;;;;3.90;2.05;;;;;;;10.71;nan;101259.03;5029762;28;20051;-67
2022/11/02 07:45:11;;;;;;;5.78;2.22;;;;;;;10.71;nan;101264.31;5046986;28;20532;-67
2022/11/02 07:47:42;;;;;;;9.30;2.28;;;;;;;10.74;nan;101271.97;5047568;28;20040;-67
2022/11/02 07:50:08;;;;;;;7.10;2.33;;;;;;;10.77;nan;101265.59;5046418;28;20040;-68
2022/11/02 07:52:33;;;;;;;9.13;2.80;;;;;;;10.80;nan;101266.16;5047275;28;20037;-67
2022/11/02 07:54:58;;;;;;;6.93;2.40;;;;;;;10.87;nan;101268.25;5047470;28;20486;-67
2022/11/02 07:57:23;;;;;;;9.75;2.55;;;;;;;10.95;nan;101268.44;5029833;28;20276;-67
2022/11/02 07:59:49;;;;;;;8.40;2.38;;;;;;;11.03;nan;101272.06;5047167;28;20037;-67
2022/11/02 08:02:14;;;;;;;10.40;2.50;;;;;;;11.10;nan;101287.41;5046465;28;20217;-67
2022/11/02 08:04:39;;;;;;;7.07;2.15;;;;;;;11.16;nan;101277.09;5047285;28;20644;-67
2022/11/02 08:07:04;;;;;;;5.40;1.97;;;;;;;11.25;nan;101288.69;5047569;28;20071;-68
2022/11/02 08:09:30;;;;;;;5.33;2.23;;;;;;;11.32;nan;101296.91;5046616;28;20268;-67
2022/11/02 08:11:55;;;;;;;7.85;2.42;;;;;;;11.41;nan;101299.56;5048197;28;20275;-67
2022/11/02 08:14:21;;;;;;;9.27;2.33;;;;;;;11.50;nan;101294.41;5046777;28;20433;-67
2022/11/02 08:16:47;;;;;;;7.90;2.10;;;;;;;11.55;nan;101310.72;5029536;28;20075;-67
2022/11/02 08:19:12;;;;;;;5.57;1.85;;;;;;;11.64;nan;101313.38;5046993;28;20037;-67
2022/11/02 08:21:37;;;;;;;8.10;2.35;;;;;;;11.69;nan;101311.13;5046579;28;20516;-67
2022/11/02 08:24:03;;;;;;;6.05;2.00;;;;;;;11.76;nan;101306.13;5047035;28;20505;-67
2022/11/02 08:26:28;;;;;;;7.35;2.35;;;;;;;11.81;nan;101309.19;5046399;28;20091;-67
2022/11/02 08:28:53;;;;;;;11.40;2.45;;;;;;;11.89;nan;101312.00;5046951;28;20119;-67
2022/11/02 08:31:18;;;;;;;9.43;2.58;;;;;;;11.90;nan;101316.31;5046224;28;20418;-68
2022/11/02 08:33:44;;;;;;;9.15;2.85;;;;;;;11.95;nan;101315.91;5047444;28;20033;-67
2022/11/02 08:36:11;;;;;;;7.47;2.30;;;;;;;12.00;nan;101313.66;5028540;28;20041;-67
2022/11/02 08:38:37;;;;;;;7.72;2.15;;;;;;;12.03;nan;101315.19;5046557;28;20422;-67
2022/11/02 08:41:03;;;;;;;7.45;2.15;;;;;;;12.07;nan;101319.25;5046988;28;20037;-67
2022/11/02 08:43:28;;;;;;;9.35;2.42;;;;;;;12.16;nan;101320.22;5047303;28;20647;-67
2022/11/02 08:45:57;;;;;;;7.47;2.03;;;;;;;12.28;nan;101319.88;5050323;28;20124;-67
2022/11/02 08:48:23;;;;;;;8.60;2.63;;;;;;;12.35;nan;101324.59;5049765;28;20082;-67
2022/11/02 08:50:48;;;;;;;8.80;2.22;;;;;;;12.40;nan;101320.56;5050415;28;20033;-67
2022/11/02 08:53:14;;;;;;;8.27;2.20;;;;;;;12.47;nan;101323.47;5049886;28;20401;-67
2022/11/02 08:55:39;;;;;;;10.25;2.65;;;;;;;12.44;nan;101321.09;5050173;28;20325;-67
2022/11/02 08:58:04;;;;;;;6.45;2.10;;;;;;;12.53;nan;101317.56;5050030;28;20468;-67
2022/11/02 09:00:32;;;;;;;8.23;2.85;;;;;;;12.62;nan;101331.78;5048833;28;20121;-68
2022/11/02 09:03:05;;;;;;;9.00;2.42;;;;;;;12.69;nan;101333.72;5049936;28;20502;-67
2022/11/02 09:05:33;;;;;;;7.40;2.63;;;;;;;12.74;nan;101327.97;5031712;28;20033;-67
2022/11/02 09:08:01;;;;;;;9.43;2.17;;;;;;;12.79;nan;101330.19;5050381;28;20660;-67
2022/11/02 09:10:28;;;;;;;8.57;2.67;;;;;;;12.85;nan;101327.78;5048995;28;20544;-67
2022/11/02 09:12:53;;;;;;;11.70;3.00;;;;;;;12.96;nan;101326.75;5049149;28;20124;-67
2022/11/02 09:15:18;;;;;;;7.10;2.60;;;;;;;13.03;nan;101330.47;5049873;28;20121;-68
2022/11/02 09:17:48;;;;;;;7.07;2.38;;;;;;;13.05;nan;101320.56;5032318;28;20037;-68
2022/11/02 09:20:17;;;;;;;3.97;1.75;;;;;;;13.08;nan;101325.56;5048667;28;20037;-68
2022/11/02 09:22:43;;;;;;;4.95;2.20;;;;;;;13.17;nan;101323.84;5048796;28;20711;-67
2022/11/02 09:25:09;;;;;;;6.63;1.90;;;;;;;13.25;nan;101321.28;5031884;28;20045;-67
2022/11/02 09:27:35;;;;;;;10.20;2.65;;;;;;;13.33;nan;101321.41;5050136;28;20074;-67
2022/11/02 09:30:02;;;;;;;5.70;1.80;;;;;;;13.37;nan;101325.44;5031080;28;20029;-67
2022/11/02 09:32:32;;;;;;;5.03;2.15;;;;;;;13.46;nan;101322.84;5043133;28;20080;-67
2022/11/02 09:34:57;;;;;;;4.53;1.98;;;;;;;13.53;nan;101331.88;5049592;28;20033;-67
2022/11/02 09:37:22;;;;;;;8.27;2.15;;;;;;;13.58;nan;101327.78;5049851;28;20425;-68
2022/11/02 09:39:47;;;;;;;5.50;2.13;;;;;;;13.74;nan;101320.94;5031388;28;20045;-67
2022/11/02 09:42:28;;;;;;;6.25;2.50;;;;;;;13.92;nan;101324.44;5048589;28;20773;-67
2022/11/02 09:45:02;;;;;;;7.38;1.98;;;;;;;14.10;nan;101331.53;5049644;28;20029;-67
2022/11/02 09:47:30;;;;;;;7.93;2.33;;;;;;;14.15;nan;101335.38;5049285;28;20037;-67
2022/11/02 09:49:59;;;;;;;6.82;2.38;;;;;;;14.13;nan;101324.06;5049057;28;20044;-67
2022/11/02 09:52:34;;;;;;;8.20;2.50;;;;;;;14.16;nan;101329.09;5048575;28;20051;-68
2022/11/02 09:55:03;;;;;;;8.48;2.45;;;;;;;14.22;nan;101325.78;5049356;28;20541;-68
2022/11/02 09:57:31;;;;;;;8.70;2.50;;;;;;;14.23;nan;101321.34;5049334;28;20036;-67
2022/11/02 09:59:57;;;;;;;4.28;1.80;;;;;;;14.30;nan;101321.53;5045153;28;20426;-67
2022/11/02 10:02:45;;;;;;;5.90;1.95;;;;;;;14.39;nan;101328.56;5049067;28;20060;-68
2022/11/02 10:05:44;;;;;;;6.28;1.80;;;;;;;14.42;nan;101329.09;5049723;28;20033;-68
2022/11/02 10:08:33;;;;;;;12.52;2.15;;;;;;;14.44;nan;101335.09;5049364;28;20033;-67
2022/11/02 10:11:08;;;;;;;9.23;1.90;;;;;;;14.45;nan;101327.94;5050460;28;20386;-66
2022/11/02 10:13:39;;;;;;;8.45;1.95;;;;;;;14.44;nan;101340.44;5049397;28;20025;-66
2022/11/02 10:16:14;;;;;;;6.60;1.50;;;;;;;14.46;nan;101334.94;5049998;28;20549;-66
2022/11/02 10:18:41;;;;;;;7.68;1.98;;;;;;;14.44;nan;101324.47;5041953;28;20245;-66
2022/11/02 10:21:16;;;;;;;6.43;2.00;;;;;;;14.50;nan;101320.31;5050504;28;20422;-66
2022/11/02 10:23:57;;;;;;;7.13;1.90;;;;;;;14.54;nan;101323.53;5033936;28;20553;-66
2022/11/02 10:26:29;;;;;;;6.30;1.55;;;;;;;14.55;nan;101322.53;5048898;28;20417;-66
2022/11/02 10:29:03;;;;;;;6.05;1.70;;;;;;;14.63;nan;101323.44;5050519;28;20498;-66
2022/11/02 10:31:31;;;;;;;5.88;1.90;;;;;;;14.70;nan;101322.78;5049400;28;20033;-66
2022/11/02 10:34:04;;;;;;;7.95;2.10;;;;;;;14.75;nan;101337.25;5048949;28;20037;-66
2022/11/02 10:36:42;;;;;;;10.52;2.28;;;;;;;15.54;nan;101327.22;5048397;28;20029;-66
2022/11/02 10:39:31;;;;;;;8.15;2.13;;;;;;;17.78;nan;101319.97;5026885;28;20033;-66
2022/11/02 10:42:34;;;;;;;5.80;1.67;;;;;;;20.30;nan;101334.84;5047842;28;20039;-67
2022/11/02 10:45:16;;;;;;;6.65;1.67;;;;;;;22.03;nan;101341.69;5047453;28;20037;-67
2022/11/02 10:48:01;;;;;;;6.53;1.80;;;;;;;22.57;nan;101337.09;5037899;28;20041;-67
2022/11/02 10:50:45;;;;;;;7.38;1.83;;;;;;;23.46;nan;101338.16;5028089;28;20123;-67
2022/11/02 10:53:12;;;;;;;;;;;;;;;24.11;nan;101339.78;5047625;28;20124;-67
2022/11/02 10:55:58;;;;;;;;;;;;;;;24.76;nan;101340.16;5047641;28;19913;-67
2022/11/02 10:58:26;;;;;;;;;;;;;;;25.48;nan;101335.91;5047402;28;19939;-67
2022/11/02 11:01:02;;;;;;;;;;;;;;;25.72;nan;101347.63;5047604;28;20152;-67
2022/11/02 11:03:28;;;;;;;;;;;;;;;25.13;nan;101342.81;5048279;28;20389;-67
2022/11/02 11:05:56;;;;;;;;;;;;;;;24.29;nan;101339.81;5047505;28;19972;-67
2022/11/02 11:08:41;;;;;;;;;;;;;;;23.10;nan;101333.41;5047675;28;19959;-67
2022/11/02 11:11:14;;;;;;;;;;;;;;;22.52;nan;101328.78;5047223;28;19927;-67
2022/11/02 11:13:44;;;;;;;;;;;;;;;22.03;nan;101317.44;5047814;28;20282;-67
2022/11/02 11:16:10;;;;;;;;;;;;;;;21.71;nan;101323.66;5047506;28;19913;-67
2022/11/02 11:18:36;;;;;;;;;;;;;;;21.48;nan;101324.06;5043257;28;19917;-67
2022/11/02 11:21:02;;;;;;;;;;;;;;;21.04;nan;101320.78;5048164;28;19923;-67
2022/11/02 11:23:27;;;;;;;;;;;;;;;20.58;nan;101314.19;5047335;28;19963;-67
2022/11/02 11:25:54;;;;;;;;;;;;;;;20.31;nan;101315.03;5047598;28;20314;-67
2022/11/02 11:28:21;;;;;;;;;;;;;;;19.98;nan;101315.63;5046913;28;20329;-67
2022/11/02 11:30:59;;;;;;;;;;;;;;;19.59;nan;101311.50;5047508;28;20028;-67
2022/11/02 11:33:24;;;;;;;;;;;;;;;19.20;nan;101311.94;5046897;28;19919;-66
2022/11/02 11:35:50;;;;;;;;;;;;;;;18.94;nan;101304.44;5047260;28;19999;-66
2022/11/02 11:38:18;;;;;;;;;;;;;;;18.86;nan;101297.34;5046535;28;19912;-67
2022/11/02 11:40:46;;;;;;;4.97;1.20;;;;;;;18.71;nan;101304.53;5045620;28;19932;-67
2022/11/02 11:43:16;;;;;;;3.88;1.30;;;;;;;18.25;nan;101313.56;5046217;28;20073;-67
2022/11/02 11:46:02;;;;;;;4.87;1.47;;;;;;;17.96;nan;101292.94;5046398;28;20041;-67
2022/11/02 11:48:51;;;;;;;7.10;1.65;;;;;;;17.83;nan;101289.06;5044794;28;20401;-66
2022/11/02 11:51:36;;;;;;;4.65;1.75;;;;;;;17.52;nan;101277.56;5046478;28;20039;-66
2022/11/02 11:54:25;;;;;;;4.95;1.80;;;;;;;17.24;nan;101288.81;5047023;28;20040;-66
2022/11/02 11:56:52;;;;;;;4.43;1.50;;;;;;;17.15;nan;101277.31;5040948;28;20442;-67
2022/11/02 11:59:24;;;;;;;5.88;1.80;;;;;;;17.15;nan;101284.50;5046647;28;20044;-67
2022/11/02 12:01:54;;;;;;;5.60;1.65;;;;;;;17.24;nan;101285.31;5046451;28;20041;-66
2022/11/02 12:04:34;;;;;;;4.57;1.33;;;;;;;17.32;nan;101296.75;5046057;28;20041;-66
2022/11/02 12:07:07;;;;;;;3.15;1.00;;;;;;;17.54;nan;101304.97;5046325;28;20520;-66
2022/11/02 12:09:48;;;;;;;8.32;1.52;;;;;;;17.56;nan;101289.56;5046384;28;20041;-66
2022/11/02 12:12:17;;;;;;;5.32;1.38;;;;;;;17.44;nan;101296.34;5045811;28;20513;-67
2022/11/02 12:15:04;;;;;;;6.28;1.50;;;;;;;17.33;nan;101287.75;5046681;28;20059;-67